createdAt,value
2018-08-03T00:02:16.431Z,26.69
2018-08-03T00:04:44.594Z,26.69
2018-08-03T00:07:12.818Z,26.69
2018-08-03T00:09:40.951Z,26.67
2018-08-03T00:12:09.113Z,26.69
2018-08-03T00:14:37.217Z,26.59
2018-08-03T00:17:05.576Z,26.52
2018-08-03T00:19:33.866Z,26.53
2018-08-03T00:22:02.005Z,26.55
2018-08-03T00:24:30.115Z,26.52
2018-08-03T00:26:58.310Z,26.54
2018-08-03T00:29:26.422Z,26.48
2018-08-03T00:31:54.666Z,26.43
2018-08-03T00:34:22.809Z,26.35
2018-08-03T00:36:50.915Z,26.39
2018-08-03T00:39:19.042Z,26.37
2018-08-03T00:41:47.200Z,26.26
2018-08-03T00:44:15.328Z,26.19
2018-08-03T00:46:43.434Z,26.20
2018-08-03T00:49:11.609Z,26.21
2018-08-03T00:51:39.826Z,26.24
2018-08-03T00:54:08.252Z,26.23
2018-08-03T00:56:36.424Z,26.22
2018-08-03T00:59:04.684Z,26.13
2018-08-03T01:01:32.818Z,26.04
2018-08-03T01:04:01.168Z,25.98
2018-08-03T01:06:29.398Z,25.96
2018-08-03T01:08:57.642Z,25.86
2018-08-03T01:11:25.780Z,25.92
2018-08-03T01:13:53.966Z,25.91
2018-08-03T01:16:22.214Z,25.87
2018-08-03T01:18:50.660Z,25.86
2018-08-03T01:21:18.801Z,25.78
2018-08-03T01:23:47.003Z,25.75
2018-08-03T01:26:15.142Z,25.76
2018-08-03T01:28:43.273Z,25.75
2018-08-03T01:31:11.382Z,25.70
2018-08-03T01:33:39.539Z,25.68
2018-08-03T01:36:07.686Z,25.69
2018-08-03T01:38:35.874Z,25.74
2018-08-03T01:41:03.995Z,25.74
2018-08-03T01:43:32.211Z,25.72
2018-08-03T01:46:00.472Z,25.65
2018-08-03T01:48:29.139Z,25.63
2018-08-03T01:50:57.210Z,25.54
2018-08-03T01:53:25.583Z,25.55
2018-08-03T01:58:44.546Z,25.51
2018-08-03T02:01:12.819Z,25.50
2018-08-03T02:03:40.963Z,25.50
2018-08-03T02:06:09.163Z,25.47
2018-08-03T02:08:37.348Z,25.53
2018-08-03T02:11:05.579Z,25.50
2018-08-03T02:13:33.679Z,25.44
2018-08-03T02:16:01.775Z,25.35
2018-08-03T02:18:30.008Z,25.36
2018-08-03T02:20:58.114Z,25.40
2018-08-03T02:23:26.203Z,25.44
2018-08-03T02:25:54.648Z,25.40
2018-08-03T02:28:22.742Z,25.41
2018-08-03T02:30:50.867Z,25.40
2018-08-03T02:33:19.080Z,25.40
2018-08-03T02:35:47.171Z,25.40
2018-08-03T02:40:49.902Z,25.33
2018-08-03T02:43:18.016Z,25.28
2018-08-03T02:45:46.121Z,25.26
2018-08-03T02:48:14.362Z,25.29
2018-08-03T02:50:42.546Z,25.24
2018-08-03T02:53:10.690Z,25.15
2018-08-03T02:55:38.862Z,25.10
2018-08-03T02:58:07.014Z,25.12
2018-08-03T03:00:35.290Z,25.01
2018-08-03T03:03:03.688Z,24.99
2018-08-03T03:05:31.865Z,25.02
2018-08-03T03:07:59.986Z,25.03
2018-08-03T03:10:28.114Z,25.03
2018-08-03T03:12:56.562Z,24.94
2018-08-03T03:15:24.667Z,25.05
2018-08-03T03:17:52.803Z,24.98
2018-08-03T03:20:20.991Z,24.97
2018-08-03T03:22:49.186Z,24.95
2018-08-03T03:25:17.330Z,24.96
2018-08-03T03:27:45.645Z,24.88
2018-08-03T03:30:13.831Z,24.81
2018-08-03T03:32:42.090Z,24.86
2018-08-03T03:35:10.181Z,24.84
2018-08-03T03:37:38.323Z,24.72
2018-08-03T03:40:06.686Z,24.70
2018-08-03T03:42:34.959Z,24.68
2018-08-03T03:45:03.148Z,24.63
2018-08-03T03:47:31.495Z,24.57
2018-08-03T03:49:59.603Z,24.58
2018-08-03T03:52:27.897Z,24.63
2018-08-03T03:54:56.034Z,24.64
2018-08-03T03:57:24.211Z,24.64
2018-08-03T03:59:52.328Z,24.63
2018-08-03T04:02:20.438Z,24.65
2018-08-03T04:04:48.593Z,24.64
2018-08-03T04:07:17.071Z,24.63
2018-08-03T04:09:45.223Z,24.60
2018-08-03T04:12:13.428Z,24.64
2018-08-03T04:14:41.494Z,24.66
2018-08-03T04:17:09.620Z,24.66
2018-08-03T04:19:37.819Z,24.65
2018-08-03T04:22:05.934Z,24.63
2018-08-03T04:24:34.201Z,24.61
2018-08-03T04:27:02.505Z,24.63
2018-08-03T04:29:31.091Z,24.59
2018-08-03T04:31:59.414Z,24.54
2018-08-03T04:34:27.558Z,24.56
2018-08-03T04:36:55.682Z,24.56
2018-08-03T04:39:23.896Z,24.52
2018-08-03T04:41:52.031Z,24.55
2018-08-03T04:44:20.370Z,24.53
2018-08-03T04:46:48.524Z,24.55
2018-08-03T04:49:16.651Z,24.54
2018-08-03T04:51:44.763Z,24.49
2018-08-03T04:54:12.963Z,24.53
2018-08-03T04:56:41.138Z,24.54
2018-08-03T04:59:09.273Z,24.52
2018-08-03T05:01:37.391Z,24.51
2018-08-03T05:04:05.692Z,24.52
2018-08-03T05:06:34.012Z,24.55
2018-08-03T05:09:02.250Z,24.55
2018-08-03T05:11:30.368Z,24.60
2018-08-03T05:13:58.592Z,24.63
2018-08-03T05:16:26.811Z,24.68
2018-08-03T05:18:55.188Z,24.72
2018-08-03T05:21:23.305Z,24.74
2018-08-03T05:23:51.439Z,24.79
2018-08-03T05:26:19.707Z,24.82
2018-08-03T05:28:48.075Z,24.86
2018-08-03T05:31:19.223Z,24.86
2018-08-03T05:33:47.457Z,24.84
2018-08-03T05:36:15.656Z,24.87
2018-08-03T05:38:43.807Z,24.91
2018-08-03T05:41:12.006Z,24.92
2018-08-03T05:43:40.137Z,24.98
2018-08-03T05:46:08.558Z,25.04
2018-08-03T05:48:36.752Z,25.08
2018-08-03T05:51:05.010Z,25.12
2018-08-03T05:53:33.250Z,25.12
2018-08-03T05:56:01.413Z,25.15
2018-08-03T05:58:29.628Z,25.16
2018-08-03T06:00:58.614Z,25.18
2018-08-03T06:03:26.734Z,25.19
2018-08-03T06:05:55.599Z,25.22
2018-08-03T06:08:23.702Z,25.29
2018-08-03T06:10:51.908Z,25.34
2018-08-03T06:13:20.065Z,25.33
2018-08-03T06:15:48.287Z,25.36
2018-08-03T06:18:16.544Z,25.41
2018-08-03T06:20:44.877Z,25.38
2018-08-03T06:23:12.972Z,25.39
2018-08-03T06:25:41.997Z,25.42
2018-08-03T06:28:10.139Z,25.47
2018-08-03T06:30:38.375Z,25.49
2018-08-03T06:33:06.864Z,25.52
2018-08-03T06:35:35.189Z,25.56
2018-08-03T06:38:03.326Z,25.61
2018-08-03T06:40:31.579Z,25.64
2018-08-03T06:42:59.927Z,25.69
2018-08-03T06:45:28.155Z,25.77
2018-08-03T06:47:56.327Z,25.81
2018-08-03T06:50:24.475Z,25.85
2018-08-03T06:52:53.085Z,25.88
2018-08-03T06:55:21.234Z,25.89
2018-08-03T06:57:50.424Z,25.94
2018-08-03T07:00:19.448Z,25.97
2018-08-03T07:02:48.007Z,25.98
2018-08-03T07:05:16.559Z,26.01
2018-08-03T07:07:44.769Z,26.03
2018-08-03T07:10:12.928Z,26.04
2018-08-03T07:12:41.958Z,26.09
2018-08-03T07:15:10.671Z,26.10
2018-08-03T07:17:39.039Z,26.11
2018-08-03T07:20:07.342Z,26.11
2018-08-03T07:22:35.546Z,26.14
2018-08-03T07:25:03.899Z,26.17
2018-08-03T07:27:32.241Z,26.20
2018-08-03T07:30:00.551Z,26.22
2018-08-03T07:32:28.687Z,26.24
2018-08-03T07:34:57.099Z,26.28
2018-08-03T07:37:26.026Z,26.32
2018-08-03T07:39:54.471Z,26.35
2018-08-03T07:42:22.595Z,26.41
2018-08-03T07:44:51.113Z,26.43
2018-08-03T07:47:19.301Z,26.45
2018-08-03T07:49:47.743Z,26.48
2018-08-03T07:52:15.883Z,26.50
2018-08-03T07:54:44.226Z,26.56
2018-08-03T07:57:12.646Z,26.59
2018-08-03T07:59:41.006Z,26.63
2018-08-03T08:02:09.268Z,26.58
2018-08-03T08:04:37.607Z,26.64
2018-08-03T08:07:05.942Z,26.66
2018-08-03T08:09:34.313Z,26.69
2018-08-03T08:12:02.665Z,26.71
2018-08-03T08:14:31.207Z,26.75
2018-08-03T08:16:59.525Z,26.79
2018-08-03T08:19:27.851Z,26.79
2018-08-03T08:21:56.057Z,26.84
2018-08-03T08:24:25.495Z,26.87
2018-08-03T08:26:54.050Z,26.88
2018-08-03T08:29:22.471Z,26.90
2018-08-03T08:31:50.667Z,26.92
2018-08-03T08:34:19.041Z,26.93
2018-08-03T08:36:48.794Z,26.95
2018-08-03T08:39:17.047Z,26.98
2018-08-03T08:41:45.532Z,27.00
2018-08-03T08:44:14.295Z,27.03
2018-08-03T08:46:42.903Z,27.05
2018-08-03T08:49:11.513Z,27.06
2018-08-03T08:51:39.703Z,27.09
2018-08-03T08:54:07.968Z,27.12
2018-08-03T08:56:36.238Z,27.13
2018-08-03T08:59:04.543Z,27.12
2018-08-03T09:01:32.667Z,27.17
2018-08-03T09:04:01.121Z,27.25
2018-08-03T09:06:29.501Z,27.29
2018-08-03T09:08:58.123Z,27.30
2018-08-03T09:11:26.316Z,27.32
2018-08-03T09:13:55.636Z,27.38
2018-08-03T09:16:24.109Z,27.41
2018-08-03T09:18:52.587Z,27.44
2018-08-03T09:21:21.003Z,27.46
2018-08-03T09:23:49.218Z,27.46
2018-08-03T09:26:17.343Z,27.50
2018-08-03T09:28:45.738Z,27.55
2018-08-03T09:31:13.950Z,27.56
2018-08-03T09:33:42.083Z,27.59
2018-08-03T09:36:10.295Z,27.61
2018-08-03T09:38:38.435Z,27.63
2018-08-03T09:41:06.687Z,27.64
2018-08-03T09:43:34.854Z,27.64
2018-08-03T09:46:03.125Z,27.65
2018-08-03T09:48:31.388Z,27.66
2018-08-03T09:50:59.541Z,27.66
2018-08-03T09:53:27.682Z,27.65
2018-08-03T09:55:55.884Z,27.65
2018-08-03T09:58:26.479Z,27.65
2018-08-03T10:00:57.290Z,27.65
2018-08-03T10:03:25.750Z,27.64
2018-08-03T10:05:54.347Z,27.65
2018-08-03T10:08:22.612Z,27.68
2018-08-03T10:10:50.839Z,27.68
2018-08-03T10:13:19.003Z,27.71
2018-08-03T10:15:47.295Z,27.70
2018-08-03T10:18:15.402Z,27.69
2018-08-03T10:20:43.575Z,27.70
2018-08-03T10:23:12.143Z,27.76
2018-08-03T10:25:40.278Z,27.79
2018-08-03T10:28:08.590Z,27.78
2018-08-03T10:30:36.846Z,27.77
2018-08-03T10:33:05.158Z,27.76
2018-08-03T10:35:33.490Z,27.75
2018-08-03T10:38:01.679Z,27.76
2018-08-03T10:40:29.779Z,27.79
2018-08-03T10:42:58.696Z,27.78
2018-08-03T10:45:26.907Z,27.80
2018-08-03T10:47:55.051Z,27.83
2018-08-03T10:50:23.166Z,27.83
2018-08-03T10:52:51.485Z,27.84
2018-08-03T10:55:19.592Z,27.87
2018-08-03T10:57:47.816Z,27.85
2018-08-03T11:00:28.945Z,27.87
2018-08-03T11:02:57.535Z,27.85
2018-08-03T11:05:26.015Z,27.85
2018-08-03T11:07:54.266Z,27.86
2018-08-03T11:10:22.401Z,27.88
2018-08-03T11:12:51.351Z,27.89
2018-08-03T11:15:20.018Z,27.90
2018-08-03T11:17:49.124Z,27.91
2018-08-03T11:20:17.495Z,27.91
2018-08-03T11:22:46.073Z,27.91
2018-08-03T11:25:14.247Z,27.92
2018-08-03T11:27:42.392Z,27.90
2018-08-03T11:30:11.282Z,27.92
2018-08-03T11:32:39.613Z,27.95
2018-08-03T11:35:08.911Z,27.92
2018-08-03T11:37:37.255Z,27.97
2018-08-03T11:40:06.047Z,28.01
2018-08-03T11:42:34.328Z,28.05
2018-08-03T11:45:02.445Z,28.05
2018-08-03T11:47:30.820Z,28.06
2018-08-03T11:50:00.043Z,28.09
2018-08-03T11:52:28.189Z,28.12
2018-08-03T11:54:56.466Z,28.24
2018-08-03T11:57:24.630Z,28.37
2018-08-03T11:59:53.886Z,28.38
2018-08-03T12:02:22.087Z,28.32
2018-08-03T12:04:50.442Z,28.32
2018-08-03T12:07:18.622Z,28.32
2018-08-03T12:09:47.037Z,28.30
2018-08-03T12:12:15.173Z,28.29
2018-08-03T12:14:43.607Z,28.29
2018-08-03T12:17:12.097Z,28.32
2018-08-03T12:19:40.485Z,28.31
2018-08-03T12:22:08.817Z,28.30
2018-08-03T12:24:37.178Z,28.30
2018-08-03T12:27:05.354Z,28.28
2018-08-03T12:29:33.991Z,28.25
2018-08-03T12:32:02.256Z,28.22
2018-08-03T12:34:30.436Z,28.22
2018-08-03T12:36:58.885Z,28.25
2018-08-03T12:39:28.275Z,28.26
2018-08-03T12:41:56.404Z,28.24
2018-08-03T12:44:24.579Z,28.23
2018-08-03T12:46:52.951Z,28.21
2018-08-03T12:49:21.710Z,28.23
2018-08-03T12:51:51.596Z,28.23
2018-08-03T12:54:19.981Z,28.27
2018-08-03T12:56:48.105Z,28.28
2018-08-03T12:59:16.349Z,28.28
2018-08-03T13:01:44.556Z,28.31
2018-08-03T13:04:14.169Z,28.39
2018-08-03T13:06:42.375Z,28.44
2018-08-03T13:09:10.560Z,28.48
2018-08-03T13:11:38.781Z,28.44
2018-08-03T13:14:07.048Z,28.45
2018-08-03T13:16:35.849Z,28.45
2018-08-03T13:19:03.999Z,28.50
2018-08-03T13:21:36.589Z,28.53
2018-08-03T13:24:04.915Z,28.58
2018-08-03T13:26:33.042Z,28.64
2018-08-03T13:29:01.288Z,28.67
2018-08-03T13:31:30.287Z,28.69
2018-08-03T13:33:58.590Z,28.67
2018-08-03T13:36:28.091Z,28.64
2018-08-03T13:38:56.655Z,28.64
2018-08-03T13:41:24.740Z,28.65
2018-08-03T13:43:53.050Z,28.66
2018-08-03T13:46:21.167Z,28.63
2018-08-03T13:48:50.103Z,28.62
2018-08-03T13:51:19.175Z,28.61
2018-08-03T13:53:48.182Z,28.61
2018-08-03T13:56:17.455Z,28.59
2018-08-03T13:58:46.491Z,28.60
2018-08-03T14:01:26.215Z,28.62
2018-08-03T14:03:54.365Z,28.62
2018-08-03T14:06:22.482Z,28.63
2018-08-03T14:08:50.706Z,28.62
2018-08-03T14:11:19.642Z,28.61
2018-08-03T14:13:48.419Z,28.57
2018-08-03T14:16:16.755Z,28.64
2018-08-03T14:18:46.461Z,28.63
2018-08-03T14:21:14.606Z,28.60
2018-08-03T14:23:42.882Z,28.60
2018-08-03T14:26:11.028Z,28.61
2018-08-03T14:28:39.271Z,28.60
2018-08-03T14:31:07.455Z,28.62
2018-08-03T14:33:35.657Z,28.64
2018-08-03T14:36:03.816Z,28.62
2018-08-03T14:38:31.971Z,28.61
2018-08-03T14:41:00.187Z,28.63
2018-08-03T14:43:28.371Z,28.65
2018-08-03T14:45:56.534Z,28.67
2018-08-03T14:48:24.643Z,28.64
2018-08-03T14:50:52.794Z,28.64
2018-08-03T14:53:21.276Z,28.64
2018-08-03T14:55:49.598Z,28.65
2018-08-03T14:58:18.151Z,28.66
2018-08-03T15:00:46.321Z,28.65
2018-08-03T15:03:14.910Z,28.65
2018-08-03T15:05:43.039Z,28.67
2018-08-03T15:08:11.375Z,28.70
2018-08-03T15:10:39.729Z,28.70
2018-08-03T15:13:08.010Z,28.71
2018-08-03T15:15:36.275Z,28.69
2018-08-03T15:18:04.448Z,28.71
2018-08-03T15:20:32.567Z,28.75
2018-08-03T15:23:01.079Z,28.75
2018-08-03T15:25:29.496Z,28.78
2018-08-03T15:27:57.833Z,28.83
2018-08-03T15:30:26.906Z,28.85
2018-08-03T15:32:55.057Z,28.89
2018-08-03T15:35:23.315Z,28.94
2018-08-03T15:37:51.752Z,28.95
2018-08-03T15:40:19.898Z,28.95
2018-08-03T15:42:48.204Z,28.95
2018-08-03T15:45:16.328Z,28.98
2018-08-03T15:47:44.554Z,28.98
2018-08-03T15:50:12.681Z,29.01
2018-08-03T15:52:41.394Z,29.02
2018-08-03T15:55:09.747Z,29.04
2018-08-03T15:57:37.994Z,29.04
2018-08-03T16:00:07.799Z,29.03
2018-08-03T16:02:35.976Z,29.05
2018-08-03T16:05:04.182Z,29.06
2018-08-03T16:07:32.319Z,29.08
2018-08-03T16:10:00.471Z,29.08
2018-08-03T16:12:28.631Z,29.11
2018-08-03T16:14:57.393Z,29.11
2018-08-03T16:17:25.651Z,29.10
2018-08-03T16:19:53.924Z,29.13
2018-08-03T16:22:22.028Z,29.14
2018-08-03T16:24:50.326Z,29.14
2018-08-03T16:27:18.591Z,29.14
2018-08-03T16:29:46.818Z,29.13
2018-08-03T16:32:15.307Z,29.10
2018-08-03T16:34:43.520Z,29.12
2018-08-03T16:37:11.668Z,29.14
2018-08-03T16:39:39.817Z,29.12
2018-08-03T16:42:08.158Z,29.12
2018-08-03T16:44:36.397Z,29.14
2018-08-03T16:47:04.502Z,29.15
2018-08-03T16:49:32.720Z,29.16
2018-08-03T16:52:00.861Z,29.18
2018-08-03T16:54:29.003Z,29.18
2018-08-03T16:56:57.248Z,29.16
2018-08-03T16:59:25.530Z,29.14
2018-08-03T17:01:53.651Z,29.17
2018-08-03T17:04:22.008Z,29.19
2018-08-03T17:06:50.212Z,29.19
2018-08-03T17:09:18.416Z,29.18
2018-08-03T17:11:46.558Z,29.18
2018-08-03T17:14:14.668Z,29.16
2018-08-03T17:16:42.775Z,29.15
2018-08-03T17:19:10.950Z,29.15
2018-08-03T17:21:39.151Z,29.15
2018-08-03T17:24:07.423Z,29.13
2018-08-03T17:26:35.686Z,29.14
2018-08-03T17:29:03.812Z,29.12
2018-08-03T17:31:31.942Z,29.13
2018-08-03T17:34:00.140Z,29.11
2018-08-03T17:36:28.291Z,29.11
2018-08-03T17:38:56.556Z,29.11
2018-08-03T17:41:24.695Z,29.11
2018-08-03T17:43:52.877Z,29.12
2018-08-03T17:46:21.230Z,29.09
2018-08-03T17:48:49.378Z,29.08
2018-08-03T17:51:17.545Z,29.08
2018-08-03T17:53:45.678Z,29.08
2018-08-03T17:56:13.873Z,29.07
2018-08-03T17:58:42.020Z,29.05
2018-08-03T18:01:10.547Z,29.04
2018-08-03T18:03:38.670Z,29.05
2018-08-03T18:06:06.887Z,29.05
2018-08-03T18:08:35.064Z,29.03
2018-08-03T18:11:03.359Z,29.05
2018-08-03T18:13:31.559Z,29.06
2018-08-03T18:15:59.774Z,29.06
2018-08-03T18:18:28.098Z,29.06
2018-08-03T18:20:56.312Z,29.06
2018-08-03T18:23:24.496Z,29.05
2018-08-03T18:25:52.610Z,29.05
2018-08-03T18:28:20.827Z,29.07
2018-08-03T18:30:49.378Z,29.07
2018-08-03T18:33:17.585Z,29.08
2018-08-03T18:35:45.767Z,29.09
2018-08-03T18:38:14.132Z,29.09
2018-08-03T18:40:42.274Z,29.12
2018-08-03T18:43:10.455Z,29.13
2018-08-03T18:45:38.592Z,29.14
2018-08-03T18:48:06.734Z,29.15
2018-08-03T18:50:34.901Z,29.16
2018-08-03T18:53:03.040Z,29.18
2018-08-03T18:55:31.420Z,29.18
2018-08-03T18:57:59.866Z,29.18
2018-08-03T19:00:28.007Z,29.19
2018-08-03T19:02:56.186Z,29.19
2018-08-03T19:05:24.539Z,29.19
2018-08-03T19:07:52.655Z,29.19
2018-08-03T19:10:20.837Z,29.19
2018-08-03T19:12:49.141Z,29.19
2018-08-03T19:15:18.301Z,29.19
2018-08-03T19:17:46.428Z,29.20
2018-08-03T19:20:26.059Z,29.19
2018-08-03T19:22:54.377Z,29.19
2018-08-03T19:25:22.564Z,29.20
2018-08-03T19:27:50.894Z,29.20
2018-08-03T19:30:19.469Z,29.19
2018-08-03T19:32:47.551Z,29.18
2018-08-03T19:35:16.085Z,29.17
2018-08-03T19:37:44.493Z,29.18
2018-08-03T19:40:12.607Z,29.18
2018-08-03T19:42:40.763Z,29.17
2018-08-03T19:45:08.907Z,29.17
2018-08-03T19:47:36.999Z,29.16
2018-08-03T19:50:05.131Z,29.16
2018-08-03T19:52:33.271Z,29.14
2018-08-03T19:55:01.411Z,29.14
2018-08-03T19:57:29.550Z,29.13
2018-08-03T19:59:57.930Z,29.12
2018-08-03T20:02:26.067Z,29.11
2018-08-03T20:04:54.163Z,29.10
2018-08-03T20:07:22.602Z,29.08
2018-08-03T20:09:50.868Z,29.07
2018-08-03T20:12:19.351Z,29.05
2018-08-03T20:14:47.497Z,29.02
2018-08-03T20:17:15.730Z,29.02
2018-08-03T20:19:43.991Z,29.01
2018-08-03T20:22:14.178Z,28.99
2018-08-03T20:24:42.354Z,28.98
2018-08-03T20:27:10.760Z,28.97
2018-08-03T20:29:39.083Z,28.97
2018-08-03T20:32:07.456Z,28.96
2018-08-03T20:34:35.576Z,29.05
2018-08-03T20:37:03.752Z,29.14
2018-08-03T20:39:32.597Z,29.19
2018-08-03T20:42:01.100Z,29.24
2018-08-03T20:44:29.796Z,29.29
2018-08-03T20:46:57.926Z,29.35
2018-08-03T20:52:35.427Z,29.40
2018-08-03T20:55:04.269Z,29.38
2018-08-03T20:57:32.404Z,29.37
2018-08-03T21:00:00.644Z,29.35
2018-08-03T21:02:28.876Z,29.38
2018-08-03T21:04:57.163Z,29.38
2018-08-03T21:07:25.310Z,29.38
2018-08-03T21:09:53.851Z,29.38
2018-08-03T21:12:22.099Z,29.37
2018-08-03T21:14:50.387Z,29.37
2018-08-03T21:17:19.207Z,29.39
2018-08-03T21:19:47.333Z,29.41
2018-08-03T21:22:15.803Z,29.42
2018-08-03T21:24:44.558Z,29.40
2018-08-03T21:27:13.045Z,29.40
2018-08-03T21:29:41.245Z,29.38
2018-08-03T21:32:09.836Z,29.37
2018-08-03T21:34:37.970Z,29.37
2018-08-03T21:37:06.131Z,29.38
2018-08-03T21:39:34.414Z,29.37
2018-08-03T21:42:02.561Z,29.35
2018-08-03T21:44:30.854Z,29.34
2018-08-03T21:46:58.972Z,29.33
2018-08-03T21:49:27.174Z,29.31
2018-08-03T21:51:56.034Z,29.28
2018-08-03T21:54:24.423Z,29.27
2018-08-03T21:56:52.540Z,29.26
2018-08-03T21:59:21.050Z,29.26
2018-08-03T22:01:49.311Z,29.26
2018-08-03T22:04:17.555Z,29.25
2018-08-03T22:06:45.722Z,29.23
2018-08-03T22:09:13.895Z,29.22
2018-08-03T22:11:42.003Z,29.21
2018-08-03T22:14:10.204Z,29.21
2018-08-03T22:16:39.222Z,29.19
2018-08-03T22:19:07.338Z,29.19
2018-08-03T22:21:35.579Z,29.18
2018-08-03T22:24:03.999Z,29.17
2018-08-03T22:26:32.382Z,29.17
2018-08-03T22:29:00.524Z,29.16
2018-08-03T22:31:28.685Z,29.14
2018-08-03T22:33:56.866Z,29.13
2018-08-03T22:36:25.228Z,29.12
2018-08-03T22:38:53.450Z,29.10
2018-08-03T22:41:21.646Z,29.09
2018-08-03T22:43:50.099Z,29.09
2018-08-03T22:46:18.217Z,29.09
2018-08-03T22:48:46.422Z,29.09
2018-08-03T22:51:14.647Z,29.01
2018-08-03T22:53:43.071Z,28.72
2018-08-03T22:56:11.234Z,28.60
2018-08-03T22:58:39.401Z,28.62
2018-08-03T23:01:07.929Z,28.59
2018-08-03T23:03:36.163Z,28.52
2018-08-03T23:06:04.338Z,28.44
2018-08-03T23:08:32.490Z,28.42
2018-08-03T23:11:01.139Z,28.34
2018-08-03T23:13:29.319Z,28.27
2018-08-03T23:15:57.588Z,28.25
2018-08-03T23:18:25.807Z,28.24
2018-08-03T23:20:54.187Z,28.20
2018-08-03T23:23:22.515Z,28.12
2018-08-03T23:25:50.821Z,28.09
2018-08-03T23:28:19.300Z,28.07
2018-08-03T23:30:47.709Z,28.02
2018-08-03T23:33:15.936Z,27.93
2018-08-03T23:35:44.444Z,27.83
2018-08-03T23:38:12.715Z,27.81
2018-08-03T23:40:40.900Z,27.69
2018-08-03T23:43:09.258Z,27.50
2018-08-03T23:45:37.407Z,27.47
2018-08-03T23:48:05.630Z,27.47
2018-08-03T23:50:33.779Z,27.54
2018-08-03T23:53:02.153Z,27.48
2018-08-03T23:55:30.313Z,27.45
2018-08-03T23:57:58.552Z,27.46
